sensor_id;sensor_type;location;lat;lon;timestamp;pressure;altitude;pressure_sealevel;temperature;humidity
69171;BME280;56279;47.902;12.308;2023-04-03T00:01:23;95859.41;;;2.71;96.32
69171;BME280;56279;47.902;12.308;2023-04-03T00:03:30;95861.03;;;2.72;96.11
69171;BME280;56279;47.902;12.308;2023-04-03T00:05:32;95858.84;;;2.69;95.54
69171;BME280;56279;47.902;12.308;2023-04-03T00:07:34;95859.66;;;2.70;96.16
69171;BME280;56279;47.902;12.308;2023-04-03T00:09:35;95857.25;;;2.68;95.57
69171;BME280;56279;47.902;12.308;2023-04-03T00:11:38;95861.88;;;2.66;95.56
69171;BME280;56279;47.902;12.308;2023-04-03T00:13:39;95860.28;;;2.65;95.73
69171;BME280;56279;47.902;12.308;2023-04-03T00:15:42;95859.50;;;2.65;95.66
69171;BME280;56279;47.902;12.308;2023-04-03T00:17:43;95859.25;;;2.66;96.08
69171;BME280;56279;47.902;12.308;2023-04-03T00:19:44;95864.47;;;2.66;95.93
69171;BME280;56279;47.902;12.308;2023-04-03T00:21:48;95865.91;;;2.62;96.17
69171;BME280;56279;47.902;12.308;2023-04-03T00:23:49;95862.72;;;2.60;95.88
69171;BME280;56279;47.902;12.308;2023-04-03T00:25:52;95858.97;;;2.56;95.51
69171;BME280;56279;47.902;12.308;2023-04-03T00:27:54;95862.56;;;2.55;95.78
69171;BME280;56279;47.902;12.308;2023-04-03T00:29:55;95865.97;;;2.56;96.29
69171;BME280;56279;47.902;12.308;2023-04-03T00:31:57;95857.94;;;2.57;95.86
69171;BME280;56279;47.902;12.308;2023-04-03T00:34:01;95855.91;;;2.59;95.76
69171;BME280;56279;47.902;12.308;2023-04-03T00:36:09;95862.16;;;2.58;95.33
69171;BME280;56279;47.902;12.308;2023-04-03T00:38:11;95859.16;;;2.55;95.87
69171;BME280;56279;47.902;12.308;2023-04-03T00:40:14;95859.16;;;2.55;95.57
69171;BME280;56279;47.902;12.308;2023-04-03T00:42:16;95858.97;;;2.56;95.43
69171;BME280;56279;47.902;12.308;2023-04-03T00:45:23;95858.97;;;2.56;95.44
69171;BME280;56279;47.902;12.308;2023-04-03T00:46:45;95857.38;;;2.55;95.79
69171;BME280;56279;47.902;12.308;2023-04-03T00:48:48;95855.34;;;2.57;95.52
69171;BME280;56279;47.902;12.308;2023-04-03T00:50:51;95857.59;;;2.54;95.65
69171;BME280;56279;47.902;12.308;2023-04-03T00:52:56;95866.41;;;2.53;95.75
69171;BME280;56279;47.902;12.308;2023-04-03T00:55:02;95863.59;;;2.54;95.84
69171;BME280;56279;47.902;12.308;2023-04-03T00:57:11;95856.94;;;2.58;95.62
69171;BME280;56279;47.902;12.308;2023-04-03T00:59:15;95852.53;;;2.59;95.35
69171;BME280;56279;47.902;12.308;2023-04-03T01:01:22;95853.31;;;2.59;95.07
69171;BME280;56279;47.902;12.308;2023-04-03T01:03:26;95861.13;;;2.59;95.29
69171;BME280;56279;47.902;12.308;2023-04-03T01:05:34;95851.50;;;2.60;95.53
69171;BME280;56279;47.902;12.308;2023-04-03T01:07:35;95863.72;;;2.59;94.81
69171;BME280;56279;47.902;12.308;2023-04-03T01:09:38;95864.31;;;2.61;95.90
69171;BME280;56279;47.902;12.308;2023-04-03T01:11:40;95864.69;;;2.65;95.46
69171;BME280;56279;47.902;12.308;2023-04-03T01:13:42;95864.06;;;2.69;95.69
69171;BME280;56279;47.902;12.308;2023-04-03T01:15:43;95867.81;;;2.73;95.59
69171;BME280;56279;47.902;12.308;2023-04-03T01:17:52;95861.22;;;2.71;95.05
69171;BME280;56279;47.902;12.308;2023-04-03T01:22:34;95864.53;;;2.60;94.66
69171;BME280;56279;47.902;12.308;2023-04-03T01:24:44;95867.56;;;2.57;94.66
69171;BME280;56279;47.902;12.308;2023-04-03T01:26:50;95869.16;;;2.58;95.37
69171;BME280;56279;47.902;12.308;2023-04-03T01:28:55;95874.38;;;2.58;95.01
69171;BME280;56279;47.902;12.308;2023-04-03T01:31:02;95877.22;;;2.56;95.00
69171;BME280;56279;47.902;12.308;2023-04-03T01:33:12;95873.41;;;2.52;95.38
69171;BME280;56279;47.902;12.308;2023-04-03T01:35:14;95878.84;;;2.51;95.02
69171;BME280;56279;47.902;12.308;2023-04-03T01:37:19;95879.66;;;2.51;94.77
69171;BME280;56279;47.902;12.308;2023-04-03T01:39:21;95875.25;;;2.52;95.01
69171;BME280;56279;47.902;12.308;2023-04-03T01:41:25;95882.25;;;2.51;94.93
69171;BME280;56279;47.902;12.308;2023-04-03T01:43:30;95880.44;;;2.52;95.51
69171;BME280;56279;47.902;12.308;2023-04-03T01:45:31;95872.41;;;2.53;94.87
69171;BME280;56279;47.902;12.308;2023-04-03T01:47:33;95877.47;;;2.48;94.51
69171;BME280;56279;47.902;12.308;2023-04-03T01:49:34;95880.47;;;2.45;94.74
69171;BME280;56279;47.902;12.308;2023-04-03T01:51:36;95880.13;;;2.42;94.34
69171;BME280;56279;47.902;12.308;2023-04-03T01:53:37;95880.91;;;2.42;94.07
69171;BME280;56279;47.902;12.308;2023-04-03T01:55:38;95875.72;;;2.42;94.99
69171;BME280;56279;47.902;12.308;2023-04-03T01:57:40;95880.13;;;2.42;94.31
69171;BME280;56279;47.902;12.308;2023-04-03T01:59:42;95883.31;;;2.44;94.84
69171;BME280;56279;47.902;12.308;2023-04-03T02:01:44;95880.47;;;2.45;94.94
69171;BME280;56279;47.902;12.308;2023-04-03T02:03:46;95879.69;;;2.45;94.44
69171;BME280;56279;47.902;12.308;2023-04-03T02:05:47;95876.88;;;2.46;94.35
69171;BME280;56279;47.902;12.308;2023-04-03T02:07:50;95876.28;;;2.44;94.97
69171;BME280;56279;47.902;12.308;2023-04-03T02:09:52;95878.09;;;2.44;94.39
69171;BME280;56279;47.902;12.308;2023-04-03T02:11:54;95879.31;;;2.41;94.24
69171;BME280;56279;47.902;12.308;2023-04-03T02:13:56;95885.53;;;2.40;94.57
69171;BME280;56279;47.902;12.308;2023-04-03T02:15:57;95884.16;;;2.38;95.10
69171;BME280;56279;47.902;12.308;2023-04-03T02:17:58;95878.16;;;2.37;94.57
69171;BME280;56279;47.902;12.308;2023-04-03T02:20:02;95881.38;;;2.33;94.58
69171;BME280;56279;47.902;12.308;2023-04-03T02:22:05;95875.78;;;2.29;94.24
69171;BME280;56279;47.902;12.308;2023-04-03T02:24:06;95884.41;;;2.30;94.01
69171;BME280;56279;47.902;12.308;2023-04-03T02:26:13;95883.19;;;2.32;94.06
69171;BME280;56279;47.902;12.308;2023-04-03T02:28:15;95884.34;;;2.36;94.86
69171;BME280;56279;47.902;12.308;2023-04-03T02:30:17;95879.94;;;2.37;94.52
69171;BME280;56279;47.902;12.308;2023-04-03T02:32:18;95877.56;;;2.35;94.58
69171;BME280;56279;47.902;12.308;2023-04-03T02:34:19;95874.31;;;2.40;94.84
69171;BME280;56279;47.902;12.308;2023-04-03T02:36:22;95877.13;;;2.38;93.88
69171;BME280;56279;47.902;12.308;2023-04-03T02:38:28;95884.94;;;2.38;94.23
69171;BME280;56279;47.902;12.308;2023-04-03T02:40:29;95880.16;;;2.35;93.42
69171;BME280;56279;47.902;12.308;2023-04-03T02:42:31;95876.19;;;2.33;94.28
69171;BME280;56279;47.902;12.308;2023-04-03T02:44:33;95885.00;;;2.32;94.29
69171;BME280;56279;47.902;12.308;2023-04-03T02:46:34;95880.38;;;2.34;93.92
69171;BME280;56279;47.902;12.308;2023-04-03T02:48:37;95880.75;;;2.37;93.50
69171;BME280;56279;47.902;12.308;2023-04-03T02:50:40;95886.78;;;2.38;93.85
69171;BME280;56279;47.902;12.308;2023-04-03T02:52:41;95883.72;;;2.41;93.51
69171;BME280;56279;47.902;12.308;2023-04-03T02:54:42;95880.13;;;2.42;93.44
69171;BME280;56279;47.902;12.308;2023-04-03T02:56:45;95882.50;;;2.43;93.71
69171;BME280;56279;47.902;12.308;2023-04-03T02:58:47;95882.72;;;2.42;93.73
69171;BME280;56279;47.902;12.308;2023-04-03T03:00:50;95884.53;;;2.41;94.02
69171;BME280;56279;47.902;12.308;2023-04-03T03:02:52;95885.31;;;2.42;93.33
69171;BME280;56279;47.902;12.308;2023-04-03T03:04:53;95885.09;;;2.43;93.47
69171;BME280;56279;47.902;12.308;2023-04-03T03:06:54;95885.09;;;2.43;93.43
69171;BME280;56279;47.902;12.308;2023-04-03T03:08:56;95886.91;;;2.43;93.50
69171;BME280;56279;47.902;12.308;2023-04-03T03:10:57;95890.94;;;2.39;93.70
69171;BME280;56279;47.902;12.308;2023-04-03T03:12:58;95891.34;;;2.36;93.51
69171;BME280;56279;47.902;12.308;2023-04-03T03:15:00;95893.19;;;2.35;93.34
69171;BME280;56279;47.902;12.308;2023-04-03T03:17:01;95887.19;;;2.35;93.58
69171;BME280;56279;47.902;12.308;2023-04-03T03:19:02;95889.78;;;2.35;93.74
69171;BME280;56279;47.902;12.308;2023-04-03T03:21:04;95879.38;;;2.35;93.55
69171;BME280;56279;47.902;12.308;2023-04-03T03:23:06;95882.56;;;2.37;93.81
69171;BME280;56279;47.902;12.308;2023-04-03T03:25:07;95880.16;;;2.35;93.57
69171;BME280;56279;47.902;12.308;2023-04-03T03:27:09;95881.75;;;2.36;92.87
69171;BME280;56279;47.902;12.308;2023-04-03T03:29:10;95883.34;;;2.37;93.44
69171;BME280;56279;47.902;12.308;2023-04-03T03:31:11;95882.34;;;2.38;93.60
69171;BME280;56279;47.902;12.308;2023-04-03T03:33:14;95881.34;;;2.39;93.72
69171;BME280;56279;47.902;12.308;2023-04-03T03:35:16;95880.34;;;2.40;93.22
69171;BME280;56279;47.902;12.308;2023-04-03T03:37:18;95878.72;;;2.39;93.46
69171;BME280;56279;47.902;12.308;2023-04-03T03:39:19;95883.13;;;2.39;93.59
69171;BME280;56279;47.902;12.308;2023-04-03T03:41:20;95884.53;;;2.41;93.53
69171;BME280;56279;47.902;12.308;2023-04-03T03:43:22;95879.69;;;2.45;93.43
69171;BME280;56279;47.902;12.308;2023-04-03T03:45:25;95888.09;;;2.47;92.96
69171;BME280;56279;47.902;12.308;2023-04-03T03:47:26;95881.88;;;2.48;92.67
69171;BME280;56279;47.902;12.308;2023-04-03T03:49:28;95881.28;;;2.46;93.05
69171;BME280;56279;47.902;12.308;2023-04-03T03:51:29;95882.66;;;2.48;92.86
69171;BME280;56279;47.902;12.308;2023-04-03T03:53:31;95876.47;;;2.49;93.62
69171;BME280;56279;47.902;12.308;2023-04-03T03:55:39;95883.25;;;2.50;93.68
69171;BME280;56279;47.902;12.308;2023-04-03T03:57:40;95882.44;;;2.50;93.00
69171;BME280;56279;47.902;12.308;2023-04-03T03:59:44;95878.84;;;2.51;93.64
69171;BME280;56279;47.902;12.308;2023-04-03T04:01:46;95885.84;;;2.50;92.99
69171;BME280;56279;47.902;12.308;2023-04-03T04:03:47;95886.66;;;2.51;93.19
69171;BME280;56279;47.902;12.308;2023-04-03T04:05:54;95879.41;;;2.53;92.99
69171;BME280;56279;47.902;12.308;2023-04-03T04:07:56;95882.25;;;2.51;92.90
69171;BME280;56279;47.902;12.308;2023-04-03T04:09:58;95883.25;;;2.50;92.89
69171;BME280;56279;47.902;12.308;2023-04-03T04:12:00;95886.88;;;2.49;92.75
69171;BME280;56279;47.902;12.308;2023-04-03T04:14:03;95876.66;;;2.48;92.96
69171;BME280;56279;47.902;12.308;2023-04-03T04:16:06;95880.88;;;2.49;92.63
69171;BME280;56279;47.902;12.308;2023-04-03T04:18:08;95885.28;;;2.48;93.43
69171;BME280;56279;47.902;12.308;2023-04-03T04:20:10;95876.88;;;2.46;92.95
69171;BME280;56279;47.902;12.308;2023-04-03T04:22:11;95879.47;;;2.46;92.40
69171;BME280;56279;47.902;12.308;2023-04-03T04:24:13;95886.50;;;2.46;92.82
69171;BME280;56279;47.902;12.308;2023-04-03T04:26:14;95888.28;;;2.45;92.54
69171;BME280;56279;47.902;12.308;2023-04-03T04:28:16;95892.34;;;2.41;92.78
69171;BME280;56279;47.902;12.308;2023-04-03T04:30:18;95888.72;;;2.42;92.19
69171;BME280;56279;47.902;12.308;2023-04-03T04:32:23;95880.34;;;2.40;92.43
69171;BME280;56279;47.902;12.308;2023-04-03T04:34:25;95884.53;;;2.41;92.18
69171;BME280;56279;47.902;12.308;2023-04-03T04:36:27;95880.34;;;2.40;92.99
69171;BME280;56279;47.902;12.308;2023-04-03T04:38:28;95886.97;;;2.36;93.12
69171;BME280;56279;47.902;12.308;2023-04-03T04:40:29;95890.59;;;2.35;92.48
69171;BME280;56279;47.902;12.308;2023-04-03T04:42:31;95885.78;;;2.32;92.82
69171;BME280;56279;47.902;12.308;2023-04-03T04:44:33;95886.78;;;2.31;92.48
69171;BME280;56279;47.902;12.308;2023-04-03T04:46:34;95890.19;;;2.32;93.08
69171;BME280;56279;47.902;12.308;2023-04-03T04:48:36;95893.38;;;2.34;93.05
69171;BME280;56279;47.902;12.308;2023-04-03T04:50:39;95895.56;;;2.37;92.54
69171;BME280;56279;47.902;12.308;2023-04-03T04:52:40;95895.16;;;2.40;92.55
69171;BME280;56279;47.902;12.308;2023-04-03T04:54:43;95896.16;;;2.39;92.64
69171;BME280;56279;47.902;12.308;2023-04-03T04:56:45;95887.75;;;2.37;92.55
69171;BME280;56279;47.902;12.308;2023-04-03T04:58:46;95893.97;;;2.36;92.84
69171;BME280;56279;47.902;12.308;2023-04-03T05:00:47;95894.78;;;2.36;92.49
69171;BME280;56279;47.902;12.308;2023-04-03T05:02:49;95896.38;;;2.37;92.91
69171;BME280;56279;47.902;12.308;2023-04-03T05:04:52;95894.78;;;2.36;92.71
69171;BME280;56279;47.902;12.308;2023-04-03T05:06:58;95896.56;;;2.36;92.07
69171;BME280;56279;47.902;12.308;2023-04-03T05:09:03;95901.78;;;2.36;92.47
69171;BME280;56279;47.902;12.308;2023-04-03T05:11:06;95902.59;;;2.36;92.45
69171;BME280;56279;47.902;12.308;2023-04-03T05:13:08;95899.63;;;2.33;92.43
69171;BME280;56279;47.902;12.308;2023-04-03T05:15:12;95904.88;;;2.26;92.71
69171;BME280;56279;47.902;12.308;2023-04-03T05:17:13;95905.47;;;2.28;92.46
69171;BME280;56279;47.902;12.308;2023-04-03T05:19:20;95905.25;;;2.30;92.35
69171;BME280;56279;47.902;12.308;2023-04-03T05:21:29;95909.22;;;2.32;92.84
69171;BME280;56279;47.902;12.308;2023-04-03T05:23:40;95911.84;;;2.32;91.97
69171;BME280;56279;47.902;12.308;2023-04-03T05:25:42;95921.66;;;2.30;92.34
69171;BME280;56279;47.902;12.308;2023-04-03T05:27:45;95912.81;;;2.31;92.15
69171;BME280;56279;47.902;12.308;2023-04-03T05:29:47;95917.41;;;2.36;92.05
69171;BME280;56279;47.902;12.308;2023-04-03T05:31:54;95908.81;;;2.35;92.34
69171;BME280;56279;47.902;12.308;2023-04-03T05:33:55;95915.41;;;2.38;92.03
69171;BME280;56279;47.902;12.308;2023-04-03T05:36:02;95920.41;;;2.39;91.52
69171;BME280;56279;47.902;12.308;2023-04-03T05:38:05;95914.38;;;2.39;91.84
69171;BME280;56279;47.902;12.308;2023-04-03T05:40:08;95926.19;;;2.41;91.73
69171;BME280;56279;47.902;12.308;2023-04-03T05:42:10;95918.38;;;2.41;92.00
69171;BME280;56279;47.902;12.308;2023-04-03T05:44:12;95919.97;;;2.42;91.96
69171;BME280;56279;47.902;12.308;2023-04-03T05:46:17;95924.34;;;2.48;91.98
69171;BME280;56279;47.902;12.308;2023-04-03T05:48:22;95926.31;;;2.53;91.85
69171;BME280;56279;47.902;12.308;2023-04-03T05:50:24;95924.88;;;2.57;91.27
69171;BME280;56279;47.902;12.308;2023-04-03T05:52:29;95919.66;;;2.57;91.74
69171;BME280;56279;47.902;12.308;2023-04-03T05:54:32;95923.47;;;2.61;91.53
69171;BME280;56279;47.902;12.308;2023-04-03T05:56:43;95925.03;;;2.62;91.75
69171;BME280;56279;47.902;12.308;2023-04-03T05:58:45;95928.84;;;2.66;91.34
69171;BME280;56279;47.902;12.308;2023-04-03T06:00:47;95933.25;;;2.65;91.21
69171;BME280;56279;47.902;12.308;2023-04-03T06:02:48;95928.44;;;2.62;90.58
69171;BME280;56279;47.902;12.308;2023-04-03T06:04:54;95935.25;;;2.63;90.74
69171;BME280;56279;47.902;12.308;2023-04-03T06:06:57;95935.63;;;2.67;91.30
69171;BME280;56279;47.902;12.308;2023-04-03T06:09:00;95931.56;;;2.71;91.17
69171;BME280;56279;47.902;12.308;2023-04-03T06:11:03;95929.34;;;2.74;91.26
69171;BME280;56279;47.902;12.308;2023-04-03T06:13:04;95933.13;;;2.78;90.76
69171;BME280;56279;47.902;12.308;2023-04-03T06:15:06;95933.13;;;2.78;90.67
69171;BME280;56279;47.902;12.308;2023-04-03T06:17:09;95932.47;;;2.83;90.63
69171;BME280;56279;47.902;12.308;2023-04-03T06:19:11;95935.91;;;2.84;90.15
69171;BME280;56279;47.902;12.308;2023-04-03T06:21:17;95934.09;;;2.84;90.60
69171;BME280;56279;47.902;12.308;2023-04-03T06:23:18;95942.25;;;2.88;90.68
69171;BME280;56279;47.902;12.308;2023-04-03T06:25:20;95936.63;;;2.91;90.38
69171;BME280;56279;47.902;12.308;2023-04-03T06:27:22;95941.44;;;2.94;90.07
69171;BME280;56279;47.902;12.308;2023-04-03T06:29:23;95941.44;;;2.94;89.58
69171;BME280;56279;47.902;12.308;2023-04-03T06:31:25;95940.63;;;2.93;89.53
69171;BME280;56279;47.902;12.308;2023-04-03T06:33:26;95940.41;;;2.95;90.13
69171;BME280;56279;47.902;12.308;2023-04-03T06:35:28;95944.19;;;2.99;90.05
69171;BME280;56279;47.902;12.308;2023-04-03T06:37:31;95937.97;;;3.00;89.10
69171;BME280;56279;47.902;12.308;2023-04-03T06:39:33;95943.75;;;3.02;89.33
69171;BME280;56279;47.902;12.308;2023-04-03T06:41:34;95940.94;;;3.03;89.31
69171;BME280;56279;47.902;12.308;2023-04-03T06:43:35;95940.94;;;3.03;89.44
69171;BME280;56279;47.902;12.308;2023-04-03T06:45:37;95940.72;;;3.05;89.21
69171;BME280;56279;47.902;12.308;2023-04-03T06:47:39;95941.25;;;3.13;89.84
69171;BME280;56279;47.902;12.308;2023-04-03T06:49:41;95945.38;;;3.21;89.39
69171;BME280;56279;47.902;12.308;2023-04-03T06:51:43;95940.75;;;3.23;89.08
69171;BME280;56279;47.902;12.308;2023-04-03T06:53:46;95943.09;;;3.31;88.98
69171;BME280;56279;47.902;12.308;2023-04-03T06:55:47;95944.81;;;3.37;88.73
69171;BME280;56279;47.902;12.308;2023-04-03T06:57:49;95954.41;;;3.43;89.29
69171;BME280;56279;47.902;12.308;2023-04-03T06:59:51;95949.53;;;3.46;89.31
69171;BME280;56279;47.902;12.308;2023-04-03T07:01:53;95949.47;;;3.53;88.43
69171;BME280;56279;47.902;12.308;2023-04-03T07:03:55;95961.66;;;3.59;88.95
69171;BME280;56279;47.902;12.308;2023-04-03T07:05:56;95954.75;;;3.65;88.43
69171;BME280;56279;47.902;12.308;2023-04-03T07:07:58;95961.16;;;3.69;88.52
69171;BME280;56279;47.902;12.308;2023-04-03T07:10:00;95958.09;;;3.72;88.39
69171;BME280;56279;47.902;12.308;2023-04-03T07:12:04;95955.63;;;3.77;88.17
69171;BME280;56279;47.902;12.308;2023-04-03T07:14:06;95963.47;;;3.77;88.30
69171;BME280;56279;47.902;12.308;2023-04-03T07:16:09;95963.84;;;3.80;88.23
69171;BME280;56279;47.902;12.308;2023-04-03T07:18:10;95967.78;;;3.83;87.98
69171;BME280;56279;47.902;12.308;2023-04-03T07:20:12;95968.16;;;3.86;87.53
69171;BME280;56279;47.902;12.308;2023-04-03T07:22:14;95976.56;;;3.88;87.24
69171;BME280;56279;47.902;12.308;2023-04-03T07:24:16;95972.16;;;3.89;86.90
69171;BME280;56279;47.902;12.308;2023-04-03T07:26:17;95971.94;;;3.90;86.49
69171;BME280;56279;47.902;12.308;2023-04-03T07:28:20;95971.72;;;3.92;86.55
69171;BME280;56279;47.902;12.308;2023-04-03T07:30:21;95972.50;;;3.92;86.64
69171;BME280;56279;47.902;12.308;2023-04-03T07:32:23;95978.69;;;3.98;86.63
69171;BME280;56279;47.902;12.308;2023-04-03T07:34:27;95975.78;;;4.06;85.66
69171;BME280;56279;47.902;12.308;2023-04-03T07:36:28;95975.88;;;4.11;86.24
69171;BME280;56279;47.902;12.308;2023-04-03T07:38:30;95981.91;;;4.11;85.43
69171;BME280;56279;47.902;12.308;2023-04-03T07:40:32;95978.38;;;4.06;84.98
69171;BME280;56279;47.902;12.308;2023-04-03T07:42:34;95987.81;;;4.07;85.31
69171;BME280;56279;47.902;12.308;2023-04-03T07:44:36;95980.69;;;4.14;84.98
69171;BME280;56279;47.902;12.308;2023-04-03T07:46:40;95983.53;;;4.12;85.17
69171;BME280;56279;47.902;12.308;2023-04-03T07:48:46;95983.53;;;4.12;85.01
69171;BME280;56279;47.902;12.308;2023-04-03T07:50:50;95978.16;;;4.07;84.17
69171;BME280;56279;47.902;12.308;2023-04-03T07:52:51;95986.78;;;4.08;84.93
69171;BME280;56279;47.902;12.308;2023-04-03T07:54:54;95985.09;;;4.13;84.35
69171;BME280;56279;47.902;12.308;2023-04-03T07:56:55;95990.03;;;4.22;84.66
69171;BME280;56279;47.902;12.308;2023-04-03T07:58:59;95993.00;;;4.25;84.22
69171;BME280;56279;47.902;12.308;2023-04-03T08:01:01;95990.28;;;4.20;83.93
69171;BME280;56279;47.902;12.308;2023-04-03T08:03:04;95987.19;;;4.23;84.29
69171;BME280;56279;47.902;12.308;2023-04-03T08:05:06;95994.81;;;4.25;84.35
69171;BME280;56279;47.902;12.308;2023-04-03T08:07:07;95993.78;;;4.26;83.67
69171;BME280;56279;47.902;12.308;2023-04-03T08:09:10;95996.84;;;4.22;83.85
69171;BME280;56279;47.902;12.308;2023-04-03T08:15:13;95994.41;;;4.39;83.78
69171;BME280;56279;47.902;12.308;2023-04-03T08:17:14;95987.63;;;4.38;83.45
69171;BME280;56279;47.902;12.308;2023-04-03T08:19:17;95995.44;;;4.38;83.58
69171;BME280;56279;47.902;12.308;2023-04-03T08:21:19;95990.56;;;4.42;83.41
69171;BME280;56279;47.902;12.308;2023-04-03T08:23:23;95994.22;;;4.41;82.97
69171;BME280;56279;47.902;12.308;2023-04-03T08:25:24;95988.31;;;4.45;82.93
69171;BME280;56279;47.902;12.308;2023-04-03T08:27:28;95993.69;;;4.50;83.13
69171;BME280;56279;47.902;12.308;2023-04-03T08:29:30;95993.78;;;4.55;82.69
69171;BME280;56279;47.902;12.308;2023-04-03T08:31:32;95998.34;;;4.60;82.66
69171;BME280;56279;47.902;12.308;2023-04-03T08:33:34;95994.28;;;4.64;82.38
69171;BME280;56279;47.902;12.308;2023-04-03T08:35:40;95996.44;;;4.67;82.38
69171;BME280;56279;47.902;12.308;2023-04-03T08:37:44;95995.78;;;4.71;82.61
69171;BME280;56279;47.902;12.308;2023-04-03T08:39:46;95992.28;;;4.77;82.25
69171;BME280;56279;47.902;12.308;2023-04-03T08:41:48;95997.78;;;4.87;82.11
69171;BME280;56279;47.902;12.308;2023-04-03T08:44:03;95996.53;;;4.90;81.96
69171;BME280;56279;47.902;12.308;2023-04-03T08:46:10;96000.28;;;4.94;81.73
69171;BME280;56279;47.902;12.308;2023-04-03T08:49:02;95995.03;;;4.94;82.04
69171;BME280;56279;47.902;12.308;2023-04-03T08:50:51;95993.34;;;5.00;81.54
69171;BME280;56279;47.902;12.308;2023-04-03T08:52:56;95991.66;;;5.05;81.15
69171;BME280;56279;47.902;12.308;2023-04-03T08:55:02;95987.09;;;5.12;80.63
69171;BME280;56279;47.902;12.308;2023-04-03T08:57:04;95995.53;;;5.14;80.71
69171;BME280;56279;47.902;12.308;2023-04-03T08:59:14;95996.56;;;5.25;80.81
69171;BME280;56279;47.902;12.308;2023-04-03T09:01:26;95989.97;;;5.34;79.72
69171;BME280;56279;47.902;12.308;2023-04-03T09:03:36;95995.91;;;5.41;79.54
69171;BME280;56279;47.902;12.308;2023-04-03T09:05:47;96005.31;;;5.42;79.32
69171;BME280;56279;47.902;12.308;2023-04-03T09:08:05;96004.06;;;5.44;78.83
69171;BME280;56279;47.902;12.308;2023-04-03T09:10:12;96001.44;;;5.56;78.78
69171;BME280;56279;47.902;12.308;2023-04-03T09:12:19;96002.94;;;5.75;78.10
69171;BME280;56279;47.902;12.308;2023-04-03T09:17:00;96002.81;;;5.93;77.76
69171;BME280;56279;47.902;12.308;2023-04-03T09:19:18;96000.06;;;6.00;77.02
69171;BME280;56279;47.902;12.308;2023-04-03T09:21:30;96006.66;;;6.02;76.56
69171;BME280;56279;47.902;12.308;2023-04-03T09:23:43;96004.28;;;6.01;76.62
69171;BME280;56279;47.902;12.308;2023-04-03T09:25:48;95999.97;;;5.95;75.86
69171;BME280;56279;47.902;12.308;2023-04-03T09:27:52;96000.31;;;5.75;75.99
69171;BME280;56279;47.902;12.308;2023-04-03T09:29:55;96000.00;;;5.60;75.96
69171;BME280;56279;47.902;12.308;2023-04-03T09:32:25;96006.94;;;5.54;76.50
69171;BME280;56279;47.902;12.308;2023-04-03T09:34:35;96012.97;;;5.55;76.50
69171;BME280;56279;47.902;12.308;2023-04-03T09:36:44;96007.25;;;5.46;76.31
69171;BME280;56279;47.902;12.308;2023-04-03T09:38:46;96001.81;;;5.36;76.65
69171;BME280;56279;47.902;12.308;2023-04-03T09:41:05;96011.47;;;5.24;76.94
69171;BME280;56279;47.902;12.308;2023-04-03T09:45:28;96003.63;;;5.24;76.65
69171;BME280;56279;47.902;12.308;2023-04-03T09:47:36;96001.44;;;5.21;75.91
69171;BME280;56279;47.902;12.308;2023-04-03T09:49:38;96000.66;;;5.21;75.55
69171;BME280;56279;47.902;12.308;2023-04-03T09:51:40;96002.81;;;5.24;75.49
69171;BME280;56279;47.902;12.308;2023-04-03T09:53:43;96001.44;;;5.33;75.30
69171;BME280;56279;47.902;12.308;2023-04-03T09:55:45;96000.88;;;5.42;75.16
69171;BME280;56279;47.902;12.308;2023-04-03T09:57:48;96002.81;;;5.47;75.07
69171;BME280;56279;47.902;12.308;2023-04-03T09:59:58;96007.94;;;5.53;74.87
69171;BME280;56279;47.902;12.308;2023-04-03T10:02:13;96002.81;;;5.58;74.65
69171;BME280;56279;47.902;12.308;2023-04-03T10:04:21;95998.50;;;5.64;74.53
69171;BME280;56279;47.902;12.308;2023-04-03T10:06:24;95993.94;;;5.71;74.57
69171;BME280;56279;47.902;12.308;2023-04-03T10:08:31;95994.63;;;5.78;74.04
69171;BME280;56279;47.902;12.308;2023-04-03T10:10:33;95997.00;;;5.80;73.59
69171;BME280;56279;47.902;12.308;2023-04-03T10:12:34;95996.13;;;5.86;73.61
69171;BME280;56279;47.902;12.308;2023-04-03T10:14:38;95998.47;;;5.99;73.07
69171;BME280;56279;47.902;12.308;2023-04-03T10:16:50;95994.72;;;6.06;73.36
69171;BME280;56279;47.902;12.308;2023-04-03T10:21:32;95993.00;;;6.00;72.93
69171;BME280;56279;47.902;12.308;2023-04-03T10:23:46;95994.47;;;6.08;72.30
69171;BME280;56279;47.902;12.308;2023-04-03T10:30:40;95995.03;;;6.10;71.30
69171;BME280;56279;47.902;12.308;2023-04-03T10:40:44;95997.97;;;6.53;69.11
69171;BME280;56279;47.902;12.308;2023-04-03T10:43:06;95992.41;;;6.50;67.98
69171;BME280;56279;47.902;12.308;2023-04-03T10:45:21;95994.41;;;6.31;67.43
69171;BME280;56279;47.902;12.308;2023-04-03T10:52:17;95989.34;;;6.41;68.98
69171;BME280;56279;47.902;12.308;2023-04-03T10:54:25;95986.25;;;6.44;68.16
69171;BME280;56279;47.902;12.308;2023-04-03T10:58:50;95991.81;;;6.19;68.98
69171;BME280;56279;47.902;12.308;2023-04-03T11:00:54;95992.50;;;6.15;68.24
69171;BME280;56279;47.902;12.308;2023-04-03T11:03:01;95991.53;;;5.93;68.69
69171;BME280;56279;47.902;12.308;2023-04-03T11:07:43;96005.44;;;5.35;70.59
69171;BME280;56279;47.902;12.308;2023-04-03T11:09:52;96003.03;;;5.11;71.94
69171;BME280;56279;47.902;12.308;2023-04-03T11:12:33;96006.28;;;4.83;73.38
69171;BME280;56279;47.902;12.308;2023-04-03T11:14:35;96001.00;;;4.71;74.57
69171;BME280;56279;47.902;12.308;2023-04-03T11:16:43;96003.59;;;4.71;75.15
69171;BME280;56279;47.902;12.308;2023-04-03T11:21:09;96006.72;;;4.80;74.30
69171;BME280;56279;47.902;12.308;2023-04-03T11:23:29;96009.53;;;4.78;75.11
69171;BME280;56279;47.902;12.308;2023-04-03T11:25:34;96006.72;;;4.80;75.72
69171;BME280;56279;47.902;12.308;2023-04-03T11:27:56;96007.41;;;4.75;76.39
69171;BME280;56279;47.902;12.308;2023-04-03T11:29:58;96006.59;;;4.75;77.13
69171;BME280;56279;47.902;12.308;2023-04-03T11:34:33;96012.78;;;4.92;77.04
69171;BME280;56279;47.902;12.308;2023-04-03T11:36:58;96004.72;;;5.05;76.73
69171;BME280;56279;47.902;12.308;2023-04-03T11:41:30;96008.72;;;5.19;76.71